Time;durP1;ratioP1;P1;durP2;ratioP2;P2;SDS_P1;SDS_P2;PMS_P1;PMS_P2;Temp;Humidity;BMP_temperature;BMP_pressure;BME280_temperature;BME280_humidity;BME280_pressure;Samples;Min_cycle;Max_cycle;Signal;HPM_P1;HPM_P2
2022/03/30 00:01:00;;;;;;;32.10;17.98;;;6.40;99.90;;;;;;5001008;28;20120;-61
2022/03/30 00:03:27;;;;;;;43.50;19.20;;;6.40;99.90;;;;;;5014650;28;20109;-61
2022/03/30 00:05:53;;;;;;;34.95;18.50;;;6.40;99.90;;;;;;5028529;28;20408;-61
2022/03/30 00:08:19;;;;;;;41.00;19.85;;;6.40;99.90;;;;;;5004904;28;20145;-61
2022/03/30 00:10:44;;;;;;;31.08;15.52;;;6.40;99.90;;;;;;4995500;28;20045;-61
2022/03/30 00:13:10;;;;;;;27.52;15.32;;;6.40;99.90;;;;;;5026309;28;20045;-61
2022/03/30 00:15:36;;;;;;;30.15;16.48;;;6.40;99.90;;;;;;5004159;28;20041;-61
2022/03/30 00:18:02;;;;;;;35.13;18.17;;;6.40;99.90;;;;;;4998360;28;20084;-61
2022/03/30 00:20:28;;;;;;;31.30;16.80;;;6.50;99.90;;;;;;5017243;28;20033;-61
2022/03/30 00:22:54;;;;;;;36.17;17.73;;;6.50;99.90;;;;;;5002699;28;20068;-61
2022/03/30 00:25:20;;;;;;;28.08;16.42;;;6.50;99.90;;;;;;5024700;28;20072;-61
2022/03/30 00:27:46;;;;;;;36.53;17.25;;;6.50;99.90;;;;;;5022996;28;20041;-61
2022/03/30 00:30:18;;;;;;;32.25;15.10;;;6.50;99.90;;;;;;5008790;28;20508;-61
2022/03/30 00:32:45;;;;;;;42.17;17.60;;;6.50;99.90;;;;;;5032005;28;20041;-61
2022/03/30 00:35:11;;;;;;;32.65;16.08;;;6.50;99.90;;;;;;5005274;28;20045;-61
2022/03/30 00:37:37;;;;;;;28.02;15.35;;;6.60;99.90;;;;;;5005856;28;20037;-61
2022/03/30 00:40:06;;;;;;;28.85;15.07;;;6.50;99.90;;;;;;5039275;28;20041;-61
2022/03/30 00:42:31;;;;;;;33.58;16.75;;;6.50;99.90;;;;;;5035515;28;20909;-60
2022/03/30 00:44:57;;;;;;;37.85;18.00;;;6.50;99.90;;;;;;5025078;28;20041;-61
2022/03/30 00:47:27;;;;;;;30.52;16.73;;;6.50;99.90;;;;;;5002246;28;20045;-60
2022/03/30 00:49:53;;;;;;;35.15;18.17;;;6.50;99.90;;;;;;5007483;28;20350;-61
2022/03/30 00:52:20;;;;;;;32.78;17.27;;;6.60;99.90;;;;;;4990239;28;20300;-61
2022/03/30 00:54:51;;;;;;;34.80;17.40;;;6.60;99.90;;;;;;4991666;28;20044;-61
2022/03/30 00:57:19;;;;;;;34.90;18.00;;;6.60;99.90;;;;;;5004340;28;20619;-61
2022/03/30 00:59:45;;;;;;;36.05;18.05;;;6.50;99.90;;;;;;4994528;28;20087;-61
2022/03/30 01:02:11;;;;;;;37.60;19.05;;;6.60;99.90;;;;;;5006669;28;20049;-61
2022/03/30 01:04:38;;;;;;;39.67;19.70;;;6.60;99.90;;;;;;4974377;28;20095;-61
2022/03/30 01:07:04;;;;;;;38.30;20.15;;;6.60;99.90;;;;;;4995541;28;20045;-61
2022/03/30 01:09:30;;;;;;;39.47;19.40;;;6.60;99.90;;;;;;4992720;28;20044;-61
2022/03/30 01:11:57;;;;;;;36.83;19.15;;;6.70;99.90;;;;;;5011990;28;20036;-61
2022/03/30 01:14:24;;;;;;;29.73;17.35;;;6.70;99.90;;;;;;5005786;28;20421;-61
2022/03/30 01:16:50;;;;;;;29.42;17.15;;;6.70;99.90;;;;;;4990194;28;20188;-61
2022/03/30 01:19:16;;;;;;;38.83;18.70;;;6.70;99.90;;;;;;4987938;28;20048;-61
2022/03/30 01:21:46;;;;;;;37.17;19.13;;;6.70;99.90;;;;;;5007940;28;20044;-61
2022/03/30 01:24:12;;;;;;;37.17;19.42;;;6.80;99.90;;;;;;5007094;28;20477;-60
2022/03/30 01:26:39;;;;;;;34.38;17.50;;;6.80;99.90;;;;;;4991121;28;20077;-61
2022/03/30 01:32:25;;;;;;;38.03;16.17;;;6.80;99.90;;;;;;4986469;28;20045;-61
2022/03/30 01:34:38;;;;;;;35.10;18.55;;;6.70;99.90;;;;;;4983926;28;20106;-60
2022/03/30 01:37:05;;;;;;;33.67;19.65;;;6.70;99.90;;;;;;4991141;28;20033;-61
2022/03/30 01:39:31;;;;;;;36.95;19.17;;;6.70;99.90;;;;;;4994345;28;20050;-61
2022/03/30 01:41:56;;;;;;;36.65;18.90;;;6.70;99.90;;;;;;4992868;28;20456;-61
2022/03/30 01:44:22;;;;;;;33.08;17.63;;;6.70;99.90;;;;;;5001789;28;20041;-61
2022/03/30 01:46:48;;;;;;;32.35;17.20;;;6.70;99.90;;;;;;5011232;28;20041;-61
2022/03/30 01:49:14;;;;;;;33.67;17.38;;;6.70;99.90;;;;;;5015307;28;20601;-61
2022/03/30 01:51:39;;;;;;;26.95;13.23;;;6.80;99.90;;;;;;5025512;28;20540;-60
2022/03/30 01:54:05;;;;;;;27.75;12.10;;;6.80;99.90;;;;;;5014705;28;20044;-61
2022/03/30 01:56:31;;;;;;;21.50;9.45;;;6.90;99.90;;;;;;5025450;28;20045;-61
2022/03/30 01:58:57;;;;;;;25.55;9.57;;;6.90;99.90;;;;;;5006426;28;20120;-61
2022/03/30 02:01:22;;;;;;;18.20;10.00;;;7.10;99.90;;;;;;5013883;28;20393;-61
2022/03/30 02:03:48;;;;;;;18.65;6.65;;;7.00;99.90;;;;;;5033935;28;20040;-61
2022/03/30 02:06:15;;;;;;;9.57;4.32;;;7.00;99.90;;;;;;5031600;28;20055;-61
2022/03/30 02:08:42;;;;;;;8.90;4.13;;;7.00;99.90;;;;;;5008076;28;20119;-61
2022/03/30 02:11:07;;;;;;;4.57;2.70;;;7.00;99.90;;;;;;5012792;28;20060;-60
2022/03/30 02:13:33;;;;;;;6.70;3.05;;;7.00;99.90;;;;;;5030669;28;20513;-61
2022/03/30 02:15:59;;;;;;;5.28;2.67;;;7.00;99.90;;;;;;5012804;28;20079;-61
2022/03/30 02:18:25;;;;;;;11.73;2.78;;;7.00;99.90;;;;;;4984609;28;21751;-61
2022/03/30 02:20:51;;;;;;;8.43;3.13;;;7.00;99.90;;;;;;5000547;28;20037;-61
2022/03/30 02:23:16;;;;;;;8.07;2.97;;;7.00;99.90;;;;;;5025956;28;20455;-61
2022/03/30 02:25:42;;;;;;;5.18;2.38;;;7.00;99.90;;;;;;5013049;28;20037;-61
2022/03/30 02:28:08;;;;;;;6.05;2.85;;;7.00;99.90;;;;;;5021480;28;20080;-61
2022/03/30 02:30:34;;;;;;;8.23;3.35;;;7.00;99.90;;;;;;5014770;28;20044;-61
2022/03/30 02:33:01;;;;;;;5.90;2.60;;;7.00;99.90;;;;;;5014733;28;20033;-61
2022/03/30 02:35:28;;;;;;;4.95;2.60;;;7.00;99.90;;;;;;5020535;28;20048;-61
2022/03/30 02:37:55;;;;;;;6.97;2.35;;;6.90;99.90;;;;;;5026804;28;20045;-61
2022/03/30 02:40:21;;;;;;;3.97;2.20;;;6.90;99.90;;;;;;5019843;28;20033;-61
2022/03/30 02:42:47;;;;;;;4.72;2.30;;;6.90;99.90;;;;;;5033471;28;20040;-61
2022/03/30 02:45:13;;;;;;;5.38;2.10;;;7.00;99.90;;;;;;4998477;28;20140;-61
2022/03/30 02:50:23;;;;;;;;;;;6.90;99.90;;;;;;5010863;28;22397;-61
2022/03/30 02:52:48;;;;;;;5.95;2.00;;;6.90;99.90;;;;;;5009617;28;19928;-61
2022/03/30 02:55:15;;;;;;;4.78;1.40;;;6.90;99.90;;;;;;4984299;28;20040;-61
2022/03/30 02:57:40;;;;;;;2.45;1.35;;;6.80;99.90;;;;;;5000608;28;20045;-61
2022/03/30 03:00:07;;;;;;;7.05;1.67;;;6.90;99.90;;;;;;4997907;28;20049;-61
2022/03/30 03:02:34;;;;;;;3.78;1.23;;;6.90;99.90;;;;;;5035580;22;20136;-61
2022/03/30 03:05:01;;;;;;;3.88;1.60;;;6.90;99.90;;;;;;5038509;28;20047;-59
2022/03/30 03:07:27;;;;;;;4.07;1.33;;;6.80;99.90;;;;;;5039262;28;20071;-61
2022/03/30 03:09:53;;;;;;;4.63;1.50;;;6.80;99.90;;;;;;5028714;28;20045;-61
2022/03/30 03:12:19;;;;;;;9.23;1.67;;;6.80;99.90;;;;;;5023337;28;20412;-61
2022/03/30 03:14:45;;;;;;;3.85;0.93;;;6.80;99.90;;;;;;5031771;28;20046;-61
2022/03/30 03:17:11;;;;;;;4.35;1.20;;;6.90;99.90;;;;;;5011193;28;20048;-61
2022/03/30 03:19:37;;;;;;;3.35;1.10;;;6.80;99.90;;;;;;5011791;28;20124;-61
2022/03/30 03:22:04;;;;;;;3.22;0.75;;;6.80;99.90;;;;;;5026980;28;20102;-62
2022/03/30 03:24:30;;;;;;;4.15;1.10;;;6.80;99.90;;;;;;5010516;28;20044;-61
2022/03/30 03:26:56;;;;;;;2.10;0.82;;;6.70;99.90;;;;;;5028059;28;20048;-61
2022/03/30 03:29:22;;;;;;;5.43;2.17;;;6.70;99.90;;;;;;5028422;28;20109;-61
2022/03/30 03:31:47;;;;;;;4.43;1.10;;;6.70;99.90;;;;;;5036041;28;20041;-61
2022/03/30 03:34:13;;;;;;;1.42;0.60;;;6.70;99.90;;;;;;5028167;28;20053;-61
2022/03/30 03:36:39;;;;;;;1.08;0.60;;;6.70;99.90;;;;;;5011347;28;20038;-61
2022/03/30 03:39:05;;;;;;;1.65;0.60;;;6.60;99.90;;;;;;5037278;28;20037;-60
2022/03/30 03:41:30;;;;;;;2.05;0.70;;;6.60;99.90;;;;;;5026657;28;20048;-62
2022/03/30 03:43:56;;;;;;;1.38;0.70;;;6.60;99.90;;;;;;5029397;28;20409;-62
2022/03/30 03:46:22;;;;;;;0.45;0.40;;;6.50;99.90;;;;;;5027279;28;20082;-59
2022/03/30 03:48:48;;;;;;;1.70;0.60;;;6.50;99.90;;;;;;5028975;28;20507;-61
2022/03/30 03:51:14;;;;;;;0.80;0.47;;;6.50;99.90;;;;;;5031424;28;20123;-61
2022/03/30 03:53:39;;;;;;;2.45;0.50;;;6.50;99.90;;;;;;5025809;28;20409;-61
2022/03/30 03:56:05;;;;;;;1.48;0.40;;;6.50;99.90;;;;;;5011038;28;20041;-60
2022/03/30 03:58:31;;;;;;;2.65;0.63;;;6.50;99.90;;;;;;5037270;28;20044;-59
2022/03/30 04:00:57;;;;;;;2.85;0.57;;;6.50;99.90;;;;;;5032265;28;20038;-62
2022/03/30 04:03:23;;;;;;;1.85;0.60;;;6.60;99.90;;;;;;5031773;28;20060;-62
2022/03/30 04:05:48;;;;;;;5.60;0.90;;;6.50;99.90;;;;;;5043605;28;20065;-61
2022/03/30 04:08:15;;;;;;;1.27;0.60;;;6.50;99.90;;;;;;5032729;28;20291;-62
2022/03/30 04:10:41;;;;;;;1.67;0.60;;;6.50;99.90;;;;;;5031354;28;20095;-61
2022/03/30 04:13:09;;;;;;;3.00;0.60;;;6.50;99.90;;;;;;5014302;28;20405;-60
2022/03/30 04:15:35;;;;;;;2.50;0.90;;;6.50;99.90;;;;;;5013223;28;20388;-61
2022/03/30 04:18:03;;;;;;;3.85;0.88;;;6.40;99.90;;;;;;5028287;28;20034;-60
2022/03/30 04:20:30;;;;;;;3.20;0.70;;;6.40;99.90;;;;;;5016183;28;20496;-62
2022/03/30 04:22:55;;;;;;;1.70;0.70;;;6.40;99.90;;;;;;5028042;28;20038;-62
2022/03/30 04:25:21;;;;;;;3.70;0.82;;;6.30;99.90;;;;;;5032062;28;20544;-62
2022/03/30 04:27:48;;;;;;;1.75;0.80;;;6.30;99.90;;;;;;5029496;28;20059;-61
2022/03/30 04:30:16;;;;;;;1.80;0.80;;;6.20;99.90;;;;;;5016008;28;20135;-61
2022/03/30 04:32:44;;;;;;;5.72;0.77;;;6.20;99.90;;;;;;5032672;28;20553;-61
2022/03/30 04:35:11;;;;;;;2.35;0.77;;;6.20;99.90;;;;;;5025993;28;20045;-61
2022/03/30 04:37:39;;;;;;;3.58;1.00;;;6.10;99.90;;;;;;5031757;28;20033;-60
2022/03/30 04:40:06;;;;;;;3.67;1.33;;;6.10;99.90;;;;;;5025713;28;20037;-59
2022/03/30 04:42:32;;;;;;;4.10;1.00;;;6.10;99.90;;;;;;5030317;28;20040;-61
2022/03/30 04:44:58;;;;;;;5.65;1.10;;;6.10;99.90;;;;;;5032030;28;20037;-60
2022/03/30 04:47:24;;;;;;;2.83;0.90;;;6.00;99.90;;;;;;5015954;28;20315;-60
2022/03/30 04:49:49;;;;;;;3.83;1.15;;;6.00;99.90;;;;;;5036065;28;20048;-61
2022/03/30 04:52:15;;;;;;;10.50;2.55;;;6.00;99.90;;;;;;5033313;28;20062;-60
2022/03/30 04:54:41;;;;;;;10.35;1.58;;;6.00;99.90;;;;;;5031015;28;20238;-61
2022/03/30 04:57:07;;;;;;;4.75;1.20;;;6.00;99.90;;;;;;5023496;28;20514;-60
2022/03/30 04:59:32;;;;;;;8.40;1.38;;;6.00;99.90;;;;;;5038396;28;20467;-59
2022/03/30 05:01:59;;;;;;;6.35;1.60;;;6.00;99.90;;;;;;5031478;28;20037;-62
2022/03/30 05:04:25;;;;;;;5.25;1.20;;;6.00;99.90;;;;;;5029235;28;20045;-61
2022/03/30 05:06:51;;;;;;;3.30;1.10;;;6.00;99.90;;;;;;5009975;28;20042;-60
2022/03/30 05:09:16;;;;;;;5.18;1.30;;;6.00;99.90;;;;;;5006954;28;20489;-61
2022/03/30 05:11:43;;;;;;;4.75;1.50;;;5.90;99.90;;;;;;5035917;28;20035;-61
2022/03/30 05:14:09;;;;;;;4.50;1.65;;;5.90;99.90;;;;;;5025985;28;20045;-61
2022/03/30 05:16:35;;;;;;;4.47;1.45;;;5.90;99.90;;;;;;5012359;28;20107;-61
2022/03/30 05:19:02;;;;;;;3.80;1.40;;;5.80;99.90;;;;;;5033236;28;20435;-61
2022/03/30 05:21:29;;;;;;;7.57;1.52;;;5.80;99.90;;;;;;5029846;28;20060;-60
2022/03/30 05:23:55;;;;;;;6.63;1.70;;;5.80;99.90;;;;;;5029267;28;20048;-62
2022/03/30 05:26:20;;;;;;;6.78;1.80;;;5.80;99.90;;;;;;5025571;28;20072;-62
2022/03/30 05:28:46;;;;;;;6.95;1.70;;;5.90;99.90;;;;;;5006400;28;20042;-62
2022/03/30 05:31:12;;;;;;;5.90;2.08;;;5.80;99.90;;;;;;5033052;28;20172;-61
2022/03/30 05:33:38;;;;;;;7.53;1.75;;;5.80;99.90;;;;;;5007816;28;20129;-61
2022/03/30 05:36:04;;;;;;;6.25;1.90;;;5.80;99.90;;;;;;5029200;28;20045;-61
2022/03/30 05:38:30;;;;;;;5.65;1.98;;;5.80;99.90;;;;;;5022478;28;20123;-61
2022/03/30 05:40:56;;;;;;;4.22;1.73;;;5.80;99.90;;;;;;5040440;28;20037;-61
2022/03/30 05:43:22;;;;;;;11.23;2.10;;;5.70;99.90;;;;;;5037736;28;20060;-61
2022/03/30 05:45:48;;;;;;;3.95;1.50;;;5.70;99.90;;;;;;5034872;28;20037;-61
2022/03/30 05:48:15;;;;;;;7.75;2.40;;;5.70;99.90;;;;;;5032825;28;20033;-61
2022/03/30 05:50:41;;;;;;;11.10;2.25;;;5.70;99.90;;;;;;5025822;28;20057;-61
2022/03/30 05:53:07;;;;;;;5.13;2.15;;;5.70;99.90;;;;;;5028921;28;20366;-61
2022/03/30 05:55:33;;;;;;;5.05;2.10;;;5.70;99.90;;;;;;5035928;28;20085;-62
2022/03/30 05:57:59;;;;;;;7.90;2.45;;;5.70;99.90;;;;;;5038606;28;20439;-62
2022/03/30 06:00:24;;;;;;;7.88;2.63;;;5.70;99.90;;;;;;5040038;28;20037;-61
2022/03/30 06:02:50;;;;;;;8.10;3.03;;;5.70;99.90;;;;;;5025208;28;20061;-62
2022/03/30 06:05:16;;;;;;;9.60;2.67;;;5.70;99.90;;;;;;5030174;28;20222;-61
2022/03/30 06:07:43;;;;;;;5.60;2.30;;;5.70;99.90;;;;;;5013658;28;20047;-60
2022/03/30 06:10:09;;;;;;;5.63;2.22;;;5.70;99.90;;;;;;5001867;28;20037;-62
2022/03/30 06:12:34;;;;;;;8.75;2.42;;;5.70;99.90;;;;;;5012943;28;20045;-60
2022/03/30 06:15:01;;;;;;;5.97;1.75;;;5.80;99.90;;;;;;5027388;28;20037;-60
2022/03/30 06:17:27;;;;;;;4.97;2.38;;;5.80;99.90;;;;;;5028300;28;20041;-60
2022/03/30 06:19:54;;;;;;;10.40;2.00;;;5.90;99.90;;;;;;5028475;28;20626;-61
2022/03/30 06:22:20;;;;;;;6.80;2.40;;;5.90;99.90;;;;;;5017914;28;20044;-61
2022/03/30 06:24:47;;;;;;;5.28;1.85;;;5.90;99.90;;;;;;5019610;28;20040;-61
2022/03/30 06:27:12;;;;;;;4.70;1.75;;;6.00;99.90;;;;;;5024648;28;20087;-61
2022/03/30 06:29:40;;;;;;;4.38;1.85;;;6.10;99.90;;;;;;5013823;28;20529;-61
2022/03/30 06:32:07;;;;;;;8.63;1.95;;;6.10;99.90;;;;;;5028682;28;20045;-60
2022/03/30 06:34:34;;;;;;;7.60;2.00;;;6.10;99.90;;;;;;5026246;28;20065;-61
2022/03/30 06:37:00;;;;;;;10.55;2.03;;;6.20;99.90;;;;;;5012994;28;20112;-61
2022/03/30 06:39:25;;;;;;;7.43;1.90;;;6.20;99.90;;;;;;5021360;28;20530;-62
2022/03/30 06:41:52;;;;;;;9.45;2.90;;;6.20;99.90;;;;;;5030036;28;20091;-61
2022/03/30 06:44:17;;;;;;;7.45;2.22;;;6.20;99.90;;;;;;5024373;28;20049;-61
2022/03/30 06:46:43;;;;;;;8.15;2.20;;;6.20;99.90;;;;;;5027939;28;20053;-62
2022/03/30 06:49:12;;;;;;;5.85;1.77;;;6.20;99.90;;;;;;5030810;28;20049;-62
2022/03/30 06:51:38;;;;;;;7.63;3.45;;;6.20;99.90;;;;;;5033216;28;20034;-61
2022/03/30 06:54:04;;;;;;;10.88;4.60;;;6.30;99.90;;;;;;5031041;28;20401;-62
2022/03/30 06:56:31;;;;;;;7.90;2.08;;;6.30;99.90;;;;;;5033510;28;20037;-61
2022/03/30 06:58:57;;;;;;;8.65;2.45;;;6.30;99.90;;;;;;5046028;28;20049;-61
2022/03/30 07:01:23;;;;;;;16.38;2.95;;;6.40;99.90;;;;;;5006407;28;20084;-62
2022/03/30 07:03:50;;;;;;;7.80;1.50;;;6.40;99.90;;;;;;5008434;28;20073;-65
2022/03/30 07:06:16;;;;;;;5.45;1.73;;;6.50;99.90;;;;;;5006352;28;22390;-65
2022/03/30 07:11:26;;;;;;;7.65;1.92;;;6.60;99.90;;;;;;5011033;28;20580;-65
2022/03/30 07:13:52;;;;;;;6.70;1.20;;;6.60;99.90;;;;;;5011450;28;20084;-63
2022/03/30 07:16:19;;;;;;;2.35;1.20;;;6.60;99.90;;;;;;5003875;28;20117;-62
2022/03/30 07:18:45;;;;;;;6.63;1.30;;;6.70;99.90;;;;;;5014592;28;20365;-65
2022/03/30 07:21:10;;;;;;;4.20;1.60;;;6.80;99.90;;;;;;4989645;28;20057;-64
2022/03/30 07:23:36;;;;;;;9.10;1.67;;;6.80;99.90;;;;;;4991734;28;20505;-62
2022/03/30 07:26:04;;;;;;;7.57;1.85;;;6.90;99.90;;;;;;5013598;28;20033;-63
2022/03/30 07:28:30;;;;;;;3.67;1.17;;;7.00;99.90;;;;;;5027299;28;20531;-66
2022/03/30 07:30:56;;;;;;;9.65;1.52;;;7.00;99.90;;;;;;5021167;28;20512;-63
2022/03/30 07:33:23;;;;;;;8.50;1.40;;;7.00;99.90;;;;;;5020527;28;20037;-66
2022/03/30 07:35:50;;;;;;;4.43;1.23;;;7.10;99.90;;;;;;5025922;28;20128;-63
2022/03/30 07:38:18;;;;;;;6.40;1.20;;;7.20;99.90;;;;;;5040170;28;20314;-63
2022/03/30 07:40:48;;;;;;;7.25;1.63;;;7.30;99.90;;;;;;5018359;28;20448;-64
2022/03/30 07:43:15;;;;;;;5.07;1.20;;;7.30;99.90;;;;;;5021202;28;20056;-66
2022/03/30 07:45:42;;;;;;;5.22;1.35;;;7.30;99.90;;;;;;5018524;28;20481;-64
2022/03/30 07:48:12;;;;;;;4.13;1.13;;;7.30;99.90;;;;;;5015466;28;20490;-65
2022/03/30 07:50:38;;;;;;;7.47;1.27;;;7.30;99.90;;;;;;5024024;28;20048;-65
2022/03/30 07:53:04;;;;;;;8.57;1.20;;;7.40;99.90;;;;;;4988528;28;20045;-63
2022/03/30 07:55:30;;;;;;;4.13;1.20;;;7.40;99.90;;;;;;5032500;28;20048;-66
2022/03/30 07:57:56;;;;;;;4.47;1.20;;;7.30;99.90;;;;;;5013167;28;20030;-64
2022/03/30 08:00:22;;;;;;;7.45;1.13;;;7.40;99.90;;;;;;5023128;28;20096;-63
2022/03/30 08:02:49;;;;;;;4.18;1.15;;;7.40;99.90;;;;;;5014330;28;20497;-63
2022/03/30 08:05:15;;;;;;;4.72;1.38;;;7.40;99.90;;;;;;5024120;28;20394;-63
2022/03/30 08:07:49;;;;;;;6.80;1.25;;;7.50;99.90;;;;;;5016187;28;20088;-64
2022/03/30 08:10:15;;;;;;;14.13;1.25;;;7.50;99.90;;;;;;5033775;28;20049;-63
2022/03/30 08:12:41;;;;;;;3.92;1.10;;;7.60;99.90;;;;;;5014097;28;20440;-64
2022/03/30 08:15:08;;;;;;;6.80;0.98;;;7.70;99.90;;;;;;5023131;28;20504;-65
2022/03/30 08:17:35;;;;;;;6.47;1.30;;;7.70;99.80;;;;;;5001751;28;20116;-64
2022/03/30 08:20:01;;;;;;;8.05;1.42;;;7.70;99.90;;;;;;5018633;28;20095;-64
2022/03/30 08:22:28;;;;;;;6.38;0.98;;;7.70;99.90;;;;;;5018858;28;20426;-63
2022/03/30 08:25:02;;;;;;;5.18;1.13;;;7.70;99.90;;;;;;4997860;28;20555;-64
2022/03/30 08:27:31;;;;;;;3.80;0.68;;;7.70;99.90;;;;;;5020020;28;20065;-62
2022/03/30 08:29:58;;;;;;;8.68;1.02;;;7.60;99.90;;;;;;5024746;28;20041;-63
2022/03/30 08:32:24;;;;;;;8.65;0.95;;;7.60;99.90;;;;;;5020058;28;20469;-63
2022/03/30 08:34:52;;;;;;;7.95;1.13;;;7.60;99.90;;;;;;5013466;28;20041;-64
2022/03/30 08:37:18;;;;;;;7.53;1.10;;;7.60;99.90;;;;;;5030597;28;20037;-64
2022/03/30 08:39:45;;;;;;;8.15;1.08;;;7.50;99.90;;;;;;5010254;28;20210;-63
2022/03/30 08:42:13;;;;;;;5.32;0.75;;;7.40;99.90;;;;;;5030308;28;20044;-64
2022/03/30 08:44:41;;;;;;;5.90;0.80;;;7.20;99.90;;;;;;5021387;28;20037;-61
2022/03/30 08:47:08;;;;;;;6.25;0.80;;;7.20;99.90;;;;;;5017656;28;20132;-63
2022/03/30 08:49:35;;;;;;;6.32;1.00;;;7.30;99.90;;;;;;4989854;28;20140;-63
2022/03/30 08:52:03;;;;;;;9.52;1.30;;;7.30;99.90;;;;;;5008431;28;20060;-64
2022/03/30 08:54:30;;;;;;;8.68;1.10;;;7.40;99.90;;;;;;5018653;28;20058;-63
2022/03/30 08:56:56;;;;;;;4.38;1.10;;;7.50;99.90;;;;;;5020170;28;20072;-63
2022/03/30 08:59:23;;;;;;;1.67;0.70;;;7.50;99.60;;;;;;5031732;28;20046;-63
2022/03/30 09:01:49;;;;;;;3.10;1.20;;;7.50;99.00;;;;;;5008588;28;20100;-65
2022/03/30 09:04:18;;;;;;;5.57;1.23;;;7.50;98.90;;;;;;5005105;28;20192;-63
2022/03/30 09:06:51;;;;;;;4.13;1.10;;;7.60;98.50;;;;;;5016337;28;20516;-64
2022/03/30 09:09:34;;;;;;;5.65;1.20;;;7.60;97.60;;;;;;5010251;28;20053;-64
2022/03/30 09:12:06;;;;;;;7.43;1.15;;;7.50;97.60;;;;;;5011538;28;20044;-64
2022/03/30 09:14:34;;;;;;;4.05;0.80;;;7.60;97.80;;;;;;5010320;28;20568;-64
2022/03/30 09:17:02;;;;;;;5.65;1.10;;;7.60;97.70;;;;;;5002575;28;20079;-64
2022/03/30 09:19:30;;;;;;;4.53;1.00;;;7.70;97.70;;;;;;5013876;28;20049;-63
2022/03/30 09:21:59;;;;;;;3.95;1.10;;;7.80;97.60;;;;;;5024494;28;20260;-63
2022/03/30 09:24:37;;;;;;;5.65;1.00;;;7.90;97.60;;;;;;5020792;28;20037;-64
2022/03/30 09:27:06;;;;;;;3.33;1.10;;;8.00;97.40;;;;;;4996960;28;20099;-63
2022/03/30 09:29:34;;;;;;;4.47;0.80;;;8.20;97.00;;;;;;5022274;28;20037;-64
2022/03/30 09:32:07;;;;;;;3.95;0.70;;;8.20;95.90;;;;;;5013271;28;20039;-63
2022/03/30 09:34:50;;;;;;;3.25;0.95;;;8.30;96.10;;;;;;5002606;28;20037;-64
2022/03/30 09:37:16;;;;;;;5.40;1.00;;;8.40;96.00;;;;;;4998217;28;20520;-63
2022/03/30 09:39:43;;;;;;;3.90;1.02;;;8.50;95.70;;;;;;4999909;28;20046;-64
2022/03/30 09:42:10;;;;;;;5.55;0.90;;;8.60;95.60;;;;;;5006210;28;20378;-64
2022/03/30 09:44:47;;;;;;;3.45;0.70;;;8.70;95.10;;;;;;5023381;28;20035;-64
2022/03/30 09:47:13;;;;;;;3.65;1.00;;;8.80;94.90;;;;;;5013698;28;20156;-64
2022/03/30 09:49:42;;;;;;;6.10;2.25;;;8.80;93.60;;;;;;5024797;28;20041;-64
2022/03/30 09:52:20;;;;;;;5.55;0.77;;;8.70;93.20;;;;;;5020424;28;20101;-66
2022/03/30 09:54:50;;;;;;;2.75;0.85;;;8.60;92.70;;;;;;5016433;28;20374;-66
2022/03/30 09:57:22;;;;;;;3.30;1.10;;;8.70;92.90;;;;;;4994801;28;20489;-65
2022/03/30 10:00:02;;;;;;;6.45;1.00;;;8.80;91.30;;;;;;5014270;28;20049;-65
2022/03/30 10:02:34;;;;;;;8.82;2.53;;;8.90;92.10;;;;;;5012682;28;20044;-65
2022/03/30 10:05:01;;;;;;;7.75;1.05;;;9.00;91.20;;;;;;5017270;28;20080;-64
2022/03/30 10:07:29;;;;;;;3.53;0.98;;;9.00;91.70;;;;;;5017940;28;20038;-63
2022/03/30 10:09:56;;;;;;;3.40;0.98;;;9.00;92.30;;;;;;5017457;28;20378;-64
2022/03/30 10:12:23;;;;;;;2.80;0.85;;;9.00;91.40;;;;;;5022021;28;20042;-64
2022/03/30 10:14:49;;;;;;;2.40;0.70;;;9.00;90.60;;;;;;5022465;28;20076;-64
2022/03/30 10:17:18;;;;;;;5.82;1.05;;;8.80;90.20;;;;;;5008064;28;20132;-64
2022/03/30 10:19:46;;;;;;;3.35;0.90;;;8.80;90.70;;;;;;5018666;28;20048;-64
2022/03/30 10:22:45;;;;;;;11.00;3.63;;;8.80;90.20;;;;;;5026689;28;20456;-63
2022/03/30 10:25:24;;;;;;;10.32;3.40;;;8.90;90.10;;;;;;5008332;28;20037;-62
2022/03/30 10:28:09;;;;;;;5.95;1.83;;;8.90;88.20;;;;;;5014803;28;20049;-64
2022/03/30 10:30:36;;;;;;;4.95;1.95;;;9.00;88.40;;;;;;5012271;28;20044;-64
2022/03/30 10:33:03;;;;;;;4.07;1.30;;;9.00;87.00;;;;;;5009471;28;20444;-63
2022/03/30 10:35:47;;;;;;;4.13;0.95;;;9.20;87.70;;;;;;5009669;28;20076;-64
2022/03/30 10:38:13;;;;;;;4.07;1.10;;;9.30;87.50;;;;;;5007083;28;21214;-64
2022/03/30 10:40:40;;;;;;;5.10;1.20;;;9.40;88.60;;;;;;5006248;28;20465;-63
2022/03/30 10:43:11;;;;;;;3.25;0.73;;;9.40;87.70;;;;;;5003134;28;20048;-63
2022/03/30 10:45:41;;;;;;;7.85;1.17;;;9.40;86.90;;;;;;5007650;28;20065;-62
2022/03/30 10:48:23;;;;;;;6.80;1.30;;;9.30;86.00;;;;;;5010737;28;20065;-65
2022/03/30 10:50:56;;;;;;;5.28;1.15;;;9.20;86.30;;;;;;5006403;28;20792;-63
2022/03/30 10:53:34;;;;;;;7.27;1.80;;;9.30;86.00;;;;;;5027230;28;20107;-64
2022/03/30 10:56:08;;;;;;;2.35;0.65;;;9.50;86.80;;;;;;5024375;28;20041;-65
2022/03/30 10:58:59;;;;;;;3.78;0.90;;;9.70;85.10;;;;;;5021636;28;20728;-63
2022/03/30 11:01:34;;;;;;;2.00;0.82;;;9.50;83.60;;;;;;4993341;28;20044;-64
2022/03/30 11:04:18;;;;;;;3.13;0.90;;;9.50;84.90;;;;;;5017336;28;20091;-66
2022/03/30 11:07:07;;;;;;;3.58;1.27;;;9.50;85.20;;;;;;5013002;28;20090;-63
2022/03/30 11:09:34;;;;;;;3.05;0.77;;;9.60;84.60;;;;;;4968262;28;20046;-66
2022/03/30 11:12:12;;;;;;;2.90;0.70;;;9.60;82.60;;;;;;5008732;28;20045;-63
2022/03/30 11:15:00;;;;;;;3.10;0.70;;;9.70;82.10;;;;;;5001723;28;20068;-64
2022/03/30 11:17:35;;;;;;;3.58;0.80;;;9.80;81.30;;;;;;5012221;28;20033;-65
2022/03/30 11:20:05;;;;;;;4.97;1.10;;;9.90;81.20;;;;;;5006782;28;20591;-62
2022/03/30 11:22:36;;;;;;;2.08;0.77;;;10.00;80.40;;;;;;5006763;28;20045;-63
2022/03/30 11:25:05;;;;;;;3.78;0.95;;;9.90;79.70;;;;;;5006131;28;20478;-62
2022/03/30 11:27:31;;;;;;;1.52;0.70;;;9.80;80.00;;;;;;5009356;28;20045;-65
2022/03/30 11:30:18;;;;;;;2.45;0.80;;;9.80;79.90;;;;;;5008693;28;20128;-64
2022/03/30 11:32:50;;;;;;;4.05;0.82;;;9.70;80.20;;;;;;5006055;28;20480;-62
2022/03/30 11:35:17;;;;;;;4.70;0.63;;;9.70;79.90;;;;;;4987880;28;20049;-62
2022/03/30 11:37:49;;;;;;;4.10;0.82;;;9.60;79.60;;;;;;5009359;28;20037;-65
2022/03/30 11:40:20;;;;;;;5.07;1.00;;;9.60;81.30;;;;;;5013225;28;20044;-62
2022/03/30 11:42:51;;;;;;;11.10;1.60;;;9.90;81.70;;;;;;5009324;28;20052;-62
2022/03/30 11:45:20;;;;;;;3.75;0.95;;;9.90;80.00;;;;;;5007365;28;20104;-62
2022/03/30 11:47:47;;;;;;;3.67;1.33;;;10.10;79.30;;;;;;5005725;28;20328;-65
2022/03/30 11:50:17;;;;;;;5.25;0.70;;;10.20;79.30;;;;;;5014196;28;20409;-65
2022/03/30 11:52:44;;;;;;;5.25;0.85;;;10.50;79.00;;;;;;5008561;28;20589;-61
2022/03/30 11:55:10;;;;;;;2.90;1.00;;;10.70;78.30;;;;;;5023283;28;20050;-61
2022/03/30 11:57:41;;;;;;;2.75;0.80;;;11.10;78.80;;;;;;5012769;28;20048;-62
2022/03/30 12:00:09;;;;;;;3.28;0.82;;;11.30;77.40;;;;;;5007370;28;20041;-62
2022/03/30 12:02:43;;;;;;;5.20;1.20;;;11.30;76.70;;;;;;4983363;28;20037;-65
2022/03/30 12:05:09;;;;;;;;;;;11.40;75.00;;;;;;5013129;28;20046;-63
2022/03/30 12:07:37;;;;;;;2.55;0.80;;;11.40;75.00;;;;;;5012685;28;19917;-62
2022/03/30 12:10:27;;;;;;;4.97;0.73;;;11.20;73.70;;;;;;5006743;28;20358;-62
2022/03/30 12:12:53;;;;;;;4.75;0.60;;;11.30;75.10;;;;;;4995076;28;20049;-63
2022/03/30 12:15:21;;;;;;;2.45;0.75;;;11.40;75.60;;;;;;4995626;28;20075;-61
2022/03/30 12:17:52;;;;;;;3.67;0.60;;;11.30;73.80;;;;;;4994207;28;20075;-61
2022/03/30 12:20:36;;;;;;;5.47;0.85;;;11.00;72.60;;;;;;5010269;28;20763;-62
2022/03/30 12:23:06;;;;;;;3.92;0.70;;;10.90;73.10;;;;;;5006956;28;20041;-62
2022/03/30 12:25:37;;;;;;;4.10;0.90;;;10.70;72.30;;;;;;5017221;28;20044;-63
2022/03/30 12:28:04;;;;;;;4.07;0.88;;;10.40;72.80;;;;;;5020803;28;20034;-62
2022/03/30 12:30:36;;;;;;;6.20;0.88;;;10.10;73.30;;;;;;5020262;28;20133;-62
2022/03/30 12:33:02;;;;;;;4.68;1.10;;;10.00;74.40;;;;;;5015932;28;20039;-64
2022/03/30 12:35:37;;;;;;;4.00;0.85;;;9.90;72.90;;;;;;5018713;28;20052;-63
2022/03/30 12:38:11;;;;;;;3.50;0.90;;;10.00;74.00;;;;;;5013205;28;20030;-63
2022/03/30 12:40:40;;;;;;;4.57;1.20;;;10.10;74.20;;;;;;5019292;28;20042;-62
2022/03/30 12:43:06;;;;;;;3.08;0.70;;;10.10;74.60;;;;;;5012816;28;20030;-65
2022/03/30 12:45:43;;;;;;;3.85;0.75;;;10.20;75.30;;;;;;5004754;28;20038;-63
2022/03/30 12:48:10;;;;;;;2.13;0.80;;;10.20;75.40;;;;;;5013225;28;20046;-62
2022/03/30 12:50:36;;;;;;;3.63;0.93;;;10.40;74.90;;;;;;5004820;28;20044;-63
2022/03/30 12:53:16;;;;;;;2.50;0.60;;;10.30;74.30;;;;;;5009887;28;20512;-63
2022/03/30 12:55:51;;;;;;;5.15;0.82;;;10.30;74.30;;;;;;5009177;28;20156;-64
2022/03/30 12:58:20;;;;;;;3.63;0.75;;;10.50;74.50;;;;;;5005137;28;20479;-63
2022/03/30 13:00:54;;;;;;;4.03;0.70;;;10.70;72.90;;;;;;5016854;28;20069;-62
2022/03/30 13:03:25;;;;;;;3.92;0.98;;;10.90;74.30;;;;;;5012302;28;20521;-66
2022/03/30 13:06:07;;;;;;;6.70;1.50;;;11.20;73.40;;;;;;5005737;28;20045;-62